McGrew, Nebraska
Current Conditions -  °F | °C
As of 10:53 PM on Sunday 23 Nov 2014 (Local Time) from KBFF Reporting Station
Clear Clear  
Wind Chill: 16°   Ceiling: Unl
Heat Index: 28°   Visibility: 10mi
Dew Point: 19°   Wind: 16mph
Humidity: 69%   Direction: 290°WNW
Pressure: 29.81"   Gusts: NA
Location:  41.75°N, 103.42°W
Report Text: KBFF 240553Z AUTO 29014KT 10SM CLR M02/M07 A2981 RMK AO2 SLP106 T10221072 10022 21033 58010
Loading
Personal Weather Stations






























Interactive Weather Map New forecast layout! Learn more

10-Day Weather Forecast

Advertisements
Track Severe Weather on mobile